createdAt,value
2023-02-16T00:00:51.592Z,4.00
2023-02-16T00:01:53.207Z,4.00
2023-02-16T00:02:55.326Z,4.00
2023-02-16T00:03:57.993Z,4.00
2023-02-16T00:04:59.399Z,4.00
2023-02-16T00:06:01.035Z,4.10
2023-02-16T00:07:02.591Z,4.10
2023-02-16T00:08:04.065Z,4.00
2023-02-16T00:09:05.559Z,4.00
2023-02-16T00:10:07.278Z,4.00
2023-02-16T00:11:38.598Z,4.00
2023-02-16T00:12:58.795Z,4.10
2023-02-16T00:14:00.861Z,4.10
2023-02-16T00:15:11.385Z,4.10
2023-02-16T00:16:24.027Z,4.00
2023-02-16T00:17:25.478Z,4.00
2023-02-16T00:18:26.887Z,4.00
2023-02-16T00:19:39.227Z,4.10
2023-02-16T00:20:40.661Z,4.10
2023-02-16T00:21:42.393Z,4.10
2023-02-16T00:22:44.301Z,4.10
2023-02-16T00:23:45.943Z,4.10
2023-02-16T00:24:47.566Z,4.00
2023-02-16T00:25:48.978Z,4.00
2023-02-16T00:26:50.865Z,4.00
2023-02-16T00:27:52.528Z,4.00
2023-02-16T00:28:58.561Z,4.00
2023-02-16T00:30:00.708Z,4.00
2023-02-16T00:31:02.674Z,3.90
2023-02-16T00:32:06.127Z,3.90
2023-02-16T00:33:17.993Z,3.90
2023-02-16T00:34:45.824Z,4.00
2023-02-16T00:35:47.890Z,3.90
2023-02-16T00:36:50.900Z,3.90
2023-02-16T00:37:52.564Z,3.90
2023-02-16T00:38:53.985Z,3.90
2023-02-16T00:39:55.468Z,3.90
2023-02-16T00:40:56.882Z,3.90
2023-02-16T00:42:01.853Z,3.80
2023-02-16T00:43:03.333Z,3.90
2023-02-16T00:44:07.019Z,3.80
2023-02-16T00:45:17.113Z,3.80
2023-02-16T00:46:18.826Z,3.70
2023-02-16T00:47:38.234Z,3.70
2023-02-16T00:48:39.708Z,3.60
2023-02-16T00:49:41.342Z,3.60
2023-02-16T00:50:44.200Z,3.50
2023-02-16T00:51:46.027Z,3.50
2023-02-16T00:52:48.530Z,3.50
2023-02-16T00:53:50.421Z,3.40
2023-02-16T00:54:51.805Z,3.40
2023-02-16T00:55:53.824Z,3.40
2023-02-16T00:56:55.417Z,3.50
2023-02-16T00:57:59.683Z,3.40
2023-02-16T00:59:20.692Z,3.40
2023-02-16T01:00:30.168Z,3.40
2023-02-16T01:01:33.382Z,3.40
2023-02-16T01:02:35.070Z,3.40
2023-02-16T01:03:37.732Z,3.40
2023-02-16T01:04:39.625Z,3.30
2023-02-16T01:05:42.620Z,3.40
2023-02-16T01:07:02.704Z,3.50
2023-02-16T01:08:30.104Z,3.50
2023-02-16T01:09:50.187Z,3.40
2023-02-16T01:11:04.448Z,3.40
2023-02-16T01:12:17.263Z,3.30
2023-02-16T01:13:19.003Z,3.30
2023-02-16T01:14:20.615Z,3.20
2023-02-16T01:15:25.275Z,3.20
2023-02-16T01:16:39.929Z,3.30
2023-02-16T01:17:41.386Z,3.30
2023-02-16T01:18:43.151Z,3.30
2023-02-16T01:19:47.153Z,3.30
2023-02-16T01:20:50.601Z,3.20
2023-02-16T01:21:52.002Z,3.30
2023-02-16T01:22:53.807Z,3.40
2023-02-16T01:23:55.277Z,3.40
2023-02-16T01:24:56.810Z,3.50
2023-02-16T01:25:59.806Z,3.50
2023-02-16T01:27:01.369Z,3.50
2023-02-16T01:28:03.510Z,3.50
2023-02-16T01:29:05.079Z,3.50
2023-02-16T01:30:13.533Z,3.40
2023-02-16T01:31:16.101Z,3.40
2023-02-16T01:32:17.893Z,3.40
2023-02-16T01:33:20.543Z,3.50
2023-02-16T01:34:22.035Z,3.50
2023-02-16T01:35:33.193Z,3.50
2023-02-16T01:36:40.653Z,3.50
2023-02-16T01:37:42.031Z,3.50
2023-02-16T01:38:43.454Z,3.50
2023-02-16T01:39:44.843Z,3.40
2023-02-16T01:41:22.615Z,3.40
2023-02-16T01:42:51.875Z,3.40
2023-02-16T01:44:03.318Z,3.40
2023-02-16T01:45:13.154Z,3.40
2023-02-16T01:46:21.303Z,3.40
2023-02-16T01:47:30.630Z,3.50
2023-02-16T01:48:32.972Z,3.40
2023-02-16T01:49:34.610Z,3.40
2023-02-16T01:51:11.388Z,3.30
2023-02-16T01:52:34.530Z,3.30
2023-02-16T01:54:07.406Z,3.20
2023-02-16T01:55:17.657Z,3.20
2023-02-16T01:56:48.065Z,3.20
2023-02-16T01:58:06.763Z,3.10
2023-02-16T01:59:24.788Z,3.10
2023-02-16T02:00:50.789Z,3.10
2023-02-16T02:02:04.638Z,3.20
2023-02-16T02:03:31.501Z,3.10
2023-02-16T02:05:01.353Z,3.20
2023-02-16T02:06:02.855Z,3.20
2023-02-16T02:07:04.724Z,3.30
2023-02-16T02:08:06.278Z,3.30
2023-02-16T02:09:14.003Z,3.30
2023-02-16T02:10:46.629Z,3.30
2023-02-16T02:12:03.648Z,3.30
2023-02-16T02:13:08.877Z,3.30
2023-02-16T02:14:27.794Z,3.30
2023-02-16T02:15:32.228Z,3.40
2023-02-16T02:16:34.016Z,3.40
2023-02-16T02:17:37.258Z,3.40
2023-02-16T02:18:39.146Z,3.40
2023-02-16T02:20:08.813Z,3.30
2023-02-16T02:22:03.758Z,3.30
2023-02-16T02:23:31.292Z,3.40
2023-02-16T02:25:05.146Z,3.30
2023-02-16T02:26:09.455Z,3.00
2023-02-16T02:27:24.721Z,2.90
2023-02-16T02:28:50.875Z,2.80
2023-02-16T02:30:08.139Z,2.70
2023-02-16T02:31:21.452Z,2.70
2023-02-16T02:32:39.502Z,2.60
2023-02-16T02:34:09.136Z,2.60
2023-02-16T02:35:47.352Z,2.60
2023-02-16T02:37:17.585Z,2.50
2023-02-16T02:38:42.120Z,2.50
2023-02-16T02:39:55.706Z,2.50
2023-02-16T02:41:20.656Z,2.50
2023-02-16T02:43:17.865Z,2.50
2023-02-16T02:44:24.680Z,2.50
2023-02-16T02:45:35.950Z,2.50
2023-02-16T02:46:38.517Z,2.50
2023-02-16T02:47:45.282Z,2.60
2023-02-16T02:48:47.939Z,2.70
2023-02-16T02:49:53.895Z,2.70
2023-02-16T02:51:28.927Z,2.70
2023-02-16T02:52:35.849Z,2.80
2023-02-16T02:53:43.053Z,2.90
2023-02-16T02:55:05.465Z,3.00
2023-02-16T02:56:28.508Z,3.00
2023-02-16T02:58:08.455Z,3.00
2023-02-16T02:59:29.942Z,3.00
2023-02-16T03:00:51.677Z,3.10
2023-02-16T03:01:59.407Z,3.00
2023-02-16T03:03:08.213Z,3.00
2023-02-16T03:04:13.827Z,3.00
2023-02-16T03:05:17.483Z,3.00
2023-02-16T03:06:26.934Z,3.00
2023-02-16T03:07:48.682Z,3.10
2023-02-16T03:08:55.827Z,3.10
2023-02-16T03:10:17.369Z,3.10
2023-02-16T03:11:48.246Z,3.10
2023-02-16T03:12:50.455Z,3.10
2023-02-16T03:14:00.772Z,3.10
2023-02-16T03:15:04.169Z,3.20
2023-02-16T03:16:14.288Z,3.20
2023-02-16T03:17:40.981Z,3.30
2023-02-16T03:19:04.499Z,3.40
2023-02-16T03:20:29.835Z,3.40
2023-02-16T03:21:51.870Z,3.40
2023-02-16T03:23:12.089Z,3.40
2023-02-16T03:24:42.828Z,3.40
2023-02-16T03:26:03.353Z,3.50
2023-02-16T03:27:24.475Z,3.50
2023-02-16T03:28:48.660Z,3.60
2023-02-16T03:29:52.757Z,3.60
2023-02-16T03:30:55.848Z,3.60
2023-02-16T03:31:57.837Z,3.60
2023-02-16T03:32:59.294Z,3.60
2023-02-16T03:34:01.519Z,3.50
2023-02-16T03:35:03.224Z,3.50
2023-02-16T03:36:05.532Z,3.60
2023-02-16T03:37:07.147Z,3.60
2023-02-16T03:38:09.239Z,3.60
2023-02-16T03:39:12.176Z,3.50
2023-02-16T03:40:28.217Z,3.60
2023-02-16T03:41:40.692Z,3.60
2023-02-16T03:42:51.805Z,3.70
2023-02-16T03:43:53.354Z,3.70
2023-02-16T03:44:55.160Z,3.70
2023-02-16T03:45:56.635Z,3.70
2023-02-16T03:46:58.375Z,3.70
2023-02-16T03:47:59.860Z,3.70
2023-02-16T03:49:01.537Z,3.70
2023-02-16T03:50:03.017Z,3.70
2023-02-16T03:51:05.203Z,3.70
2023-02-16T03:52:06.717Z,3.60
2023-02-16T03:53:08.599Z,3.70
2023-02-16T03:54:10.159Z,3.60
2023-02-16T03:55:11.735Z,3.60
2023-02-16T03:56:13.239Z,3.60
2023-02-16T03:57:14.663Z,3.70
2023-02-16T03:58:19.467Z,3.70
2023-02-16T03:59:21.227Z,3.70
2023-02-16T04:00:22.689Z,3.70
2023-02-16T04:01:24.854Z,3.70
2023-02-16T04:02:28.823Z,3.70
2023-02-16T04:03:30.345Z,3.70
2023-02-16T04:04:31.835Z,3.60
2023-02-16T04:05:34.057Z,3.60
2023-02-16T04:06:35.595Z,3.50
2023-02-16T04:07:37.000Z,3.60
2023-02-16T04:08:38.494Z,3.60
2023-02-16T04:09:40.028Z,3.60
2023-02-16T04:10:41.524Z,3.60
2023-02-16T04:12:01.706Z,3.50
2023-02-16T04:13:03.942Z,3.50
2023-02-16T04:14:05.730Z,3.50
2023-02-16T04:15:11.006Z,3.50
2023-02-16T04:16:12.534Z,3.50
2023-02-16T04:17:39.036Z,3.50
2023-02-16T04:18:40.855Z,3.40
2023-02-16T04:19:42.327Z,3.40
2023-02-16T04:20:43.825Z,3.50
2023-02-16T04:21:45.312Z,3.50
2023-02-16T04:22:47.436Z,3.40
2023-02-16T04:23:49.172Z,3.40
2023-02-16T04:24:50.704Z,3.40
2023-02-16T04:25:52.096Z,3.40
2023-02-16T04:26:53.663Z,3.40
2023-02-16T04:27:55.697Z,3.40
2023-02-16T04:28:57.137Z,3.30
2023-02-16T04:29:58.620Z,3.40
2023-02-16T04:31:00.166Z,3.40
2023-02-16T04:32:01.750Z,3.30
2023-02-16T04:33:03.417Z,3.30
2023-02-16T04:34:04.839Z,3.30
2023-02-16T04:35:06.943Z,3.30
2023-02-16T04:36:08.978Z,3.30
2023-02-16T04:37:10.539Z,3.30
2023-02-16T04:38:12.331Z,3.40
2023-02-16T04:39:13.811Z,3.40
2023-02-16T04:40:17.420Z,3.40
2023-02-16T04:41:19.067Z,3.40
2023-02-16T04:42:20.841Z,3.40
2023-02-16T04:43:22.538Z,3.50
2023-02-16T04:44:23.966Z,3.40
2023-02-16T04:45:25.392Z,3.40
2023-02-16T04:46:26.796Z,3.40
2023-02-16T04:47:28.711Z,3.30
2023-02-16T04:48:30.394Z,3.30
2023-02-16T04:49:31.761Z,3.30
2023-02-16T04:50:33.226Z,3.30
2023-02-16T04:51:34.814Z,3.30
2023-02-16T04:52:36.918Z,3.30
2023-02-16T04:53:38.395Z,3.30
2023-02-16T04:54:40.066Z,3.40
2023-02-16T04:55:49.409Z,3.30
2023-02-16T04:56:51.264Z,3.30
2023-02-16T04:57:52.717Z,3.20
2023-02-16T04:58:54.293Z,3.30
2023-02-16T04:59:55.673Z,3.30
2023-02-16T05:00:57.116Z,3.20
2023-02-16T05:01:59.051Z,3.20
2023-02-16T05:03:00.911Z,3.20
2023-02-16T05:04:02.458Z,3.30
2023-02-16T05:05:04.033Z,3.20
2023-02-16T05:06:05.911Z,3.20
2023-02-16T05:07:07.380Z,3.20
2023-02-16T05:08:08.939Z,3.20
2023-02-16T05:09:10.985Z,3.20
2023-02-16T05:10:12.512Z,3.20
2023-02-16T05:11:32.805Z,3.20
2023-02-16T05:12:53.074Z,3.20
2023-02-16T05:14:15.495Z,3.20
2023-02-16T05:15:17.186Z,3.10
2023-02-16T05:16:21.527Z,3.00
2023-02-16T05:17:25.069Z,3.10
2023-02-16T05:18:26.576Z,3.10
2023-02-16T05:19:28.220Z,3.00
2023-02-16T05:20:49.153Z,3.00
2023-02-16T05:21:50.628Z,3.00
2023-02-16T05:22:52.311Z,3.00
2023-02-16T05:23:53.697Z,3.00
2023-02-16T05:24:55.421Z,2.90
2023-02-16T05:25:56.835Z,3.00
2023-02-16T05:26:58.275Z,3.10
2023-02-16T05:28:00.298Z,3.10
2023-02-16T05:29:02.038Z,3.00
2023-02-16T05:30:03.985Z,3.00
2023-02-16T05:31:05.927Z,3.00
2023-02-16T05:32:07.742Z,3.00
2023-02-16T05:33:09.401Z,2.90
2023-02-16T05:34:10.887Z,2.90
2023-02-16T05:35:12.311Z,2.90
2023-02-16T05:36:13.726Z,2.80
2023-02-16T05:37:16.975Z,2.90
2023-02-16T05:38:18.373Z,2.90
2023-02-16T05:39:20.077Z,2.90
2023-02-16T05:40:21.576Z,2.80
2023-02-16T05:41:26.042Z,2.80
2023-02-16T05:42:27.474Z,2.80
2023-02-16T05:43:29.441Z,2.80
2023-02-16T05:44:30.897Z,2.80
2023-02-16T05:45:32.511Z,2.80
2023-02-16T05:46:38.222Z,2.70
2023-02-16T05:47:39.602Z,2.70
2023-02-16T05:48:41.511Z,2.70
2023-02-16T05:49:43.040Z,2.70
2023-02-16T05:50:44.511Z,2.70
2023-02-16T05:51:46.084Z,2.60
2023-02-16T05:52:47.482Z,2.60
2023-02-16T05:53:48.968Z,2.60
2023-02-16T05:54:50.746Z,2.60
2023-02-16T05:55:52.090Z,2.60
2023-02-16T05:56:53.814Z,2.60
2023-02-16T05:57:55.453Z,2.60
2023-02-16T05:58:58.305Z,2.60
2023-02-16T05:59:59.943Z,2.60
2023-02-16T06:01:02.067Z,2.60
2023-02-16T06:02:03.599Z,2.70
2023-02-16T06:03:05.095Z,2.70
2023-02-16T06:04:08.736Z,2.70
2023-02-16T06:05:10.339Z,2.60
2023-02-16T06:06:12.357Z,2.60
2023-02-16T06:07:14.937Z,2.60
2023-02-16T06:08:16.520Z,2.60
2023-02-16T06:09:18.023Z,2.60
2023-02-16T06:10:19.848Z,2.60
2023-02-16T06:11:36.539Z,2.50
2023-02-16T06:12:38.244Z,2.50
2023-02-16T06:13:39.633Z,2.50
2023-02-16T06:14:41.117Z,2.50
2023-02-16T06:15:43.608Z,2.50
2023-02-16T06:16:48.566Z,2.50
2023-02-16T06:17:50.051Z,2.50
2023-02-16T06:18:51.905Z,2.50
2023-02-16T06:19:53.792Z,2.50
2023-02-16T06:20:57.432Z,2.50
2023-02-16T06:21:58.875Z,2.40
2023-02-16T06:23:00.398Z,2.40
2023-02-16T06:24:02.024Z,2.40
2023-02-16T06:25:04.034Z,2.50
2023-02-16T06:26:05.628Z,2.50
2023-02-16T06:27:07.268Z,2.50
2023-02-16T06:28:09.603Z,2.50
2023-02-16T06:29:11.216Z,2.50
2023-02-16T06:30:13.305Z,2.50
2023-02-16T06:31:15.187Z,2.50
2023-02-16T06:32:18.238Z,2.60
2023-02-16T06:33:19.709Z,2.50
2023-02-16T06:34:21.323Z,2.60
2023-02-16T06:35:22.855Z,2.60
2023-02-16T06:36:25.109Z,2.60
2023-02-16T06:37:26.654Z,2.60
2023-02-16T06:38:28.102Z,2.60
2023-02-16T06:39:29.955Z,2.60
2023-02-16T06:40:31.463Z,2.60
2023-02-16T06:41:39.996Z,2.60
2023-02-16T06:42:42.495Z,2.70
2023-02-16T06:43:43.910Z,2.70
2023-02-16T06:44:45.710Z,2.80
2023-02-16T06:45:48.136Z,2.70
2023-02-16T06:46:49.692Z,2.80
2023-02-16T06:47:51.519Z,2.80
2023-02-16T06:48:55.753Z,2.80
2023-02-16T06:49:57.325Z,2.70
2023-02-16T06:51:00.229Z,2.70
2023-02-16T06:52:02.616Z,2.70
2023-02-16T06:53:04.577Z,2.60
2023-02-16T06:54:08.110Z,2.70
2023-02-16T06:55:10.496Z,2.60
2023-02-16T06:56:12.690Z,2.60
2023-02-16T06:57:15.311Z,2.60
2023-02-16T06:58:16.772Z,2.60
2023-02-16T06:59:18.303Z,2.60
2023-02-16T07:00:20.025Z,2.60
2023-02-16T07:01:26.680Z,2.60
2023-02-16T07:02:29.631Z,2.70
2023-02-16T07:03:32.030Z,2.60
2023-02-16T07:04:34.584Z,2.60
2023-02-16T07:05:36.066Z,2.60
2023-02-16T07:06:37.563Z,2.60
2023-02-16T07:07:40.640Z,2.60
2023-02-16T07:08:44.142Z,2.70
2023-02-16T07:09:47.480Z,2.70
2023-02-16T07:10:52.990Z,2.70
2023-02-16T07:11:54.804Z,2.80
2023-02-16T07:12:57.876Z,2.80
2023-02-16T07:14:00.653Z,2.80
2023-02-16T07:15:02.831Z,2.80
2023-02-16T07:16:05.992Z,2.80
2023-02-16T07:17:09.551Z,2.80
2023-02-16T07:18:13.266Z,2.70
2023-02-16T07:19:14.768Z,2.80
2023-02-16T07:20:17.973Z,2.80
2023-02-16T07:21:20.024Z,2.80
2023-02-16T07:22:23.831Z,2.80
2023-02-16T07:23:25.927Z,2.80
2023-02-16T07:24:27.783Z,2.80
2023-02-16T07:25:29.312Z,2.80
2023-02-16T07:26:30.781Z,2.80
2023-02-16T07:27:32.633Z,2.90
2023-02-16T07:28:34.928Z,3.00
2023-02-16T07:29:36.838Z,2.90
2023-02-16T07:30:40.331Z,3.00
2023-02-16T07:31:43.917Z,3.00
2023-02-16T07:32:47.537Z,3.00
2023-02-16T07:33:48.983Z,3.00
2023-02-16T07:34:52.542Z,2.90
2023-02-16T07:35:54.053Z,2.90
2023-02-16T07:36:55.494Z,2.90
2023-02-16T07:37:56.902Z,2.90
2023-02-16T07:38:58.291Z,2.90
2023-02-16T07:39:59.715Z,3.00
2023-02-16T07:41:01.468Z,3.00
2023-02-16T07:42:03.770Z,3.00
2023-02-16T07:43:06.476Z,3.00
2023-02-16T07:44:08.736Z,3.10
2023-02-16T07:45:10.225Z,3.10
2023-02-16T07:46:11.836Z,3.10
2023-02-16T07:47:14.414Z,3.20
2023-02-16T07:48:15.975Z,3.20
2023-02-16T07:49:17.405Z,3.20
2023-02-16T07:50:18.963Z,3.30
2023-02-16T07:51:25.038Z,3.20
2023-02-16T07:52:31.143Z,3.20
2023-02-16T07:53:32.910Z,3.30
2023-02-16T07:54:34.378Z,3.30
2023-02-16T07:55:40.672Z,3.40
2023-02-16T07:56:42.181Z,3.50
2023-02-16T07:57:43.929Z,3.50
2023-02-16T07:58:47.273Z,3.50
2023-02-16T07:59:52.473Z,3.50
2023-02-16T08:01:10.963Z,3.60
2023-02-16T08:02:16.567Z,3.60
2023-02-16T08:03:18.288Z,3.60
2023-02-16T08:04:19.850Z,3.70
2023-02-16T08:05:21.700Z,3.70
2023-02-16T08:06:23.385Z,3.80
2023-02-16T08:07:24.870Z,3.80
2023-02-16T08:08:26.578Z,3.90
2023-02-16T08:09:27.984Z,3.90
2023-02-16T08:10:29.461Z,3.90
2023-02-16T08:11:31.677Z,4.00
2023-02-16T08:12:33.615Z,4.00
2023-02-16T08:13:35.188Z,4.10
2023-02-16T08:14:36.808Z,4.10
2023-02-16T08:15:38.191Z,4.10
2023-02-16T08:16:39.789Z,4.10
2023-02-16T08:17:41.443Z,4.20
2023-02-16T08:18:42.876Z,4.20
2023-02-16T08:19:44.320Z,4.30
2023-02-16T08:21:02.731Z,4.30
2023-02-16T08:22:06.667Z,4.40
2023-02-16T08:23:10.339Z,4.40
2023-02-16T08:24:13.101Z,4.50
2023-02-16T08:25:15.985Z,4.50
2023-02-16T08:26:18.709Z,4.60
2023-02-16T08:27:21.366Z,4.60
2023-02-16T08:28:28.615Z,4.70
2023-02-16T08:29:30.892Z,4.70
2023-02-16T08:30:34.588Z,4.70
2023-02-16T08:31:38.305Z,4.80
2023-02-16T08:32:40.789Z,4.90
2023-02-16T08:33:42.644Z,4.90
2023-02-16T08:34:44.096Z,4.90
2023-02-16T08:35:45.462Z,4.90
2023-02-16T08:36:53.275Z,4.90
2023-02-16T08:37:55.080Z,4.90
2023-02-16T08:38:56.476Z,5.10
2023-02-16T08:40:00.775Z,5.10
2023-02-16T08:41:02.687Z,5.20
2023-02-16T08:42:04.409Z,5.20
2023-02-16T08:43:05.841Z,5.30
2023-02-16T08:44:09.039Z,5.40
2023-02-16T08:45:11.077Z,5.50
2023-02-16T08:46:12.759Z,5.40
2023-02-16T08:47:14.255Z,5.50
2023-02-16T08:48:16.606Z,5.50
2023-02-16T08:49:21.734Z,5.50
2023-02-16T08:50:23.350Z,5.50
2023-02-16T08:51:25.569Z,5.50
2023-02-16T08:52:27.045Z,5.60
2023-02-16T08:53:33.129Z,5.60
2023-02-16T08:54:34.558Z,5.70
2023-02-16T08:55:35.935Z,5.70
2023-02-16T08:56:37.921Z,5.70
2023-02-16T08:57:40.288Z,5.80
2023-02-16T08:58:41.722Z,5.80
2023-02-16T08:59:43.448Z,5.90
2023-02-16T09:00:44.941Z,5.90
2023-02-16T09:01:46.661Z,6.00
2023-02-16T09:02:48.310Z,6.00
2023-02-16T09:03:49.806Z,6.10
2023-02-16T09:04:51.195Z,6.10
2023-02-16T09:05:53.144Z,6.20
2023-02-16T09:06:56.546Z,6.30
2023-02-16T09:07:58.605Z,6.30
2023-02-16T09:09:00.028Z,6.30
2023-02-16T09:10:03.077Z,6.40
2023-02-16T09:11:08.830Z,6.60
2023-02-16T09:12:10.215Z,6.70
2023-02-16T09:13:15.027Z,6.70
2023-02-16T09:14:18.968Z,6.70
2023-02-16T09:15:20.860Z,6.80
2023-02-16T09:16:24.529Z,6.80
2023-02-16T09:17:27.016Z,6.80
2023-02-16T09:18:28.596Z,6.90
2023-02-16T09:19:30.330Z,7.00
2023-02-16T09:20:32.132Z,7.00
2023-02-16T09:21:33.828Z,7.00
2023-02-16T09:22:35.554Z,7.00
2023-02-16T09:23:38.414Z,7.10
2023-02-16T09:24:39.913Z,7.20
2023-02-16T09:25:41.938Z,7.30
2023-02-16T09:26:44.732Z,7.30
2023-02-16T09:27:46.280Z,7.30
2023-02-16T09:28:48.944Z,7.40
2023-02-16T09:29:51.288Z,7.40
2023-02-16T09:30:54.770Z,7.50
2023-02-16T09:31:56.826Z,7.60
2023-02-16T09:33:01.395Z,7.60
2023-02-16T09:34:22.835Z,7.70
2023-02-16T09:35:25.908Z,7.80
2023-02-16T09:36:28.546Z,7.80
2023-02-16T09:37:30.177Z,7.90
2023-02-16T09:38:32.679Z,7.90
2023-02-16T09:39:34.105Z,8.00
2023-02-16T09:40:37.698Z,8.00
2023-02-16T09:42:06.329Z,8.00
2023-02-16T09:43:11.972Z,8.10
2023-02-16T09:44:58.190Z,8.10
2023-02-16T09:46:02.249Z,8.10
2023-02-16T09:47:11.330Z,8.10
2023-02-16T09:48:32.462Z,8.20
2023-02-16T09:49:54.136Z,8.20
2023-02-16T09:50:59.194Z,8.30
2023-02-16T09:52:20.929Z,8.40
2023-02-16T09:53:41.874Z,8.40
2023-02-16T09:54:47.644Z,8.50
2023-02-16T09:56:04.657Z,8.50
2023-02-16T09:57:17.587Z,8.60
2023-02-16T09:58:42.156Z,8.70
2023-02-16T10:00:04.472Z,8.70
2023-02-16T10:01:31.844Z,8.80
2023-02-16T10:03:10.228Z,8.90
2023-02-16T10:04:31.358Z,8.90
2023-02-16T10:06:05.677Z,9.00
2023-02-16T10:07:43.879Z,9.10
2023-02-16T10:08:48.501Z,9.30
2023-02-16T10:09:53.935Z,9.50
2023-02-16T10:11:04.824Z,9.60
2023-02-16T10:12:14.789Z,9.70
2023-02-16T10:13:37.611Z,9.80
2023-02-16T10:14:48.181Z,9.80
2023-02-16T10:15:53.626Z,9.90
2023-02-16T10:17:28.408Z,9.90
2023-02-16T10:18:40.153Z,9.90
2023-02-16T10:19:52.750Z,10.00
2023-02-16T10:20:56.681Z,10.00
2023-02-16T10:22:02.572Z,10.10
2023-02-16T10:23:26.892Z,10.10
2023-02-16T10:24:31.816Z,10.10
2023-02-16T10:25:42.417Z,10.20
2023-02-16T10:26:52.097Z,10.20
2023-02-16T10:28:16.222Z,10.30
2023-02-16T10:29:20.667Z,10.30
2023-02-16T10:30:23.237Z,10.30
2023-02-16T10:31:43.309Z,10.40
2023-02-16T10:33:04.461Z,10.50
2023-02-16T10:34:14.626Z,10.60
2023-02-16T10:35:20.441Z,10.70
2023-02-16T10:36:42.799Z,10.80
2023-02-16T10:38:05.999Z,10.90
2023-02-16T10:39:33.691Z,10.90
2023-02-16T10:40:38.819Z,11.00
2023-02-16T10:41:45.644Z,11.10
2023-02-16T10:43:16.443Z,11.20
2023-02-16T10:44:37.157Z,11.30
2023-02-16T10:45:46.412Z,11.50
2023-02-16T10:46:57.040Z,11.60
2023-02-16T10:47:58.886Z,11.60
2023-02-16T10:49:02.242Z,11.60
2023-02-16T10:50:05.773Z,11.60
2023-02-16T10:51:12.684Z,11.70
2023-02-16T10:52:14.393Z,11.80
2023-02-16T10:53:49.942Z,11.80
2023-02-16T10:54:51.476Z,11.80
2023-02-16T10:55:57.251Z,11.90
2023-02-16T10:57:02.814Z,11.90
2023-02-16T10:58:04.304Z,12.00
2023-02-16T10:59:13.893Z,12.00
2023-02-16T11:00:18.955Z,12.00
2023-02-16T11:01:37.233Z,12.00
2023-02-16T11:02:45.435Z,12.00
2023-02-16T11:03:49.914Z,12.10
2023-02-16T11:04:53.418Z,12.20
2023-02-16T11:05:55.399Z,12.20
2023-02-16T11:07:06.015Z,12.30
2023-02-16T11:08:11.290Z,12.30
2023-02-16T11:09:15.547Z,12.40
2023-02-16T11:10:22.584Z,12.40
2023-02-16T11:11:29.251Z,12.40
2023-02-16T11:12:38.944Z,12.40
2023-02-16T11:13:40.788Z,12.40
2023-02-16T11:14:49.961Z,12.50
2023-02-16T11:15:57.464Z,12.50
2023-02-16T11:17:14.371Z,12.50
2023-02-16T11:18:41.999Z,12.60
2023-02-16T11:20:05.578Z,12.60
2023-02-16T11:21:10.020Z,12.60
2023-02-16T11:22:45.719Z,12.60
2023-02-16T11:23:59.728Z,12.60
2023-02-16T11:25:21.586Z,12.80
2023-02-16T11:26:28.849Z,12.90
2023-02-16T11:27:30.250Z,12.90
2023-02-16T11:28:33.630Z,12.90
2023-02-16T11:29:35.506Z,13.00
2023-02-16T11:30:40.218Z,13.00
2023-02-16T11:31:41.804Z,13.10
2023-02-16T11:32:43.479Z,13.10
2023-02-16T11:34:00.100Z,13.10
2023-02-16T11:35:01.822Z,13.20
2023-02-16T11:36:18.160Z,13.40
2023-02-16T11:37:27.665Z,13.40
2023-02-16T11:38:32.785Z,13.50
2023-02-16T11:39:39.024Z,13.50
2023-02-16T11:40:40.495Z,13.60
2023-02-16T11:41:57.595Z,13.60
2023-02-16T11:43:00.908Z,13.70
2023-02-16T11:44:03.422Z,13.80
2023-02-16T11:45:05.584Z,13.90
2023-02-16T11:46:17.711Z,13.90
2023-02-16T11:47:39.661Z,14.00
2023-02-16T11:48:41.312Z,14.10
2023-02-16T11:49:42.740Z,14.20
2023-02-16T11:51:11.381Z,14.20
2023-02-16T11:52:30.561Z,14.30
2023-02-16T11:53:36.561Z,14.40
2023-02-16T11:54:47.781Z,14.40
2023-02-16T11:55:49.861Z,14.40
2023-02-16T11:57:06.758Z,14.50
2023-02-16T11:58:27.459Z,14.50
2023-02-16T11:59:39.541Z,14.50
2023-02-16T12:00:47.752Z,14.60
2023-02-16T12:01:54.702Z,14.60
2023-02-16T12:03:07.943Z,14.70
2023-02-16T12:04:32.631Z,14.70
2023-02-16T12:06:08.038Z,14.70
2023-02-16T12:07:28.851Z,14.80
2023-02-16T12:08:41.690Z,14.90
2023-02-16T12:10:04.521Z,14.90
2023-02-16T12:11:11.886Z,14.90
2023-02-16T12:12:19.435Z,14.90
2023-02-16T12:13:37.680Z,14.90
2023-02-16T12:14:51.248Z,15.00
2023-02-16T12:16:24.587Z,15.00
2023-02-16T12:17:44.815Z,15.20
2023-02-16T12:19:04.556Z,15.30
2023-02-16T12:20:36.625Z,15.30
2023-02-16T12:21:38.905Z,15.30
2023-02-16T12:22:46.900Z,15.40
2023-02-16T12:24:09.378Z,15.50
2023-02-16T12:25:38.996Z,15.60
2023-02-16T12:26:57.567Z,15.60
2023-02-16T12:28:22.230Z,15.70
2023-02-16T12:29:53.739Z,15.70
2023-02-16T12:31:07.348Z,15.80
2023-02-16T12:32:59.411Z,15.90
2023-02-16T12:34:12.441Z,15.80
2023-02-16T12:35:54.045Z,15.80
2023-02-16T12:37:13.867Z,15.80
2023-02-16T12:38:39.956Z,15.90
2023-02-16T12:40:13.410Z,15.90
2023-02-16T12:41:38.779Z,15.80
2023-02-16T12:42:56.560Z,15.80
2023-02-16T12:44:02.925Z,15.80
2023-02-16T12:45:16.342Z,15.70
2023-02-16T12:46:29.676Z,15.60
2023-02-16T12:47:44.973Z,15.50
2023-02-16T12:48:49.511Z,15.40
2023-02-16T12:50:11.458Z,15.50
2023-02-16T12:51:18.556Z,15.50
2023-02-16T12:52:42.989Z,15.50
2023-02-16T12:54:01.962Z,15.50
2023-02-16T12:55:41.802Z,15.50
2023-02-16T12:56:47.752Z,15.50
2023-02-16T12:58:08.415Z,15.50
2023-02-16T12:59:22.148Z,15.60
2023-02-16T13:00:37.608Z,15.70
2023-02-16T13:01:39.150Z,15.70
2023-02-16T13:02:47.175Z,15.70
2023-02-16T13:04:04.766Z,15.70
2023-02-16T13:05:12.134Z,15.70
2023-02-16T13:06:37.414Z,15.70
2023-02-16T13:07:41.673Z,15.60
2023-02-16T13:08:57.670Z,15.60
2023-02-16T13:10:36.218Z,15.50
2023-02-16T13:11:56.524Z,15.60
2023-02-16T13:13:18.695Z,15.60
2023-02-16T13:14:27.709Z,15.50
2023-02-16T13:15:42.905Z,15.50
2023-02-16T13:16:53.628Z,15.40
2023-02-16T13:18:06.830Z,15.30
2023-02-16T13:19:13.109Z,15.40
2023-02-16T13:20:16.808Z,15.30
2023-02-16T13:21:21.225Z,15.30
2023-02-16T13:22:54.551Z,15.30
2023-02-16T13:23:59.189Z,15.30
2023-02-16T13:25:31.585Z,15.40
2023-02-16T13:26:51.604Z,15.30
2023-02-16T13:27:52.948Z,15.40
2023-02-16T13:29:39.195Z,15.40
2023-02-16T13:31:17.387Z,15.40
2023-02-16T13:32:56.980Z,15.40
2023-02-16T13:34:01.141Z,15.50
2023-02-16T13:35:19.190Z,15.40
2023-02-16T13:36:39.040Z,15.50
2023-02-16T13:38:00.613Z,15.50
2023-02-16T13:39:23.756Z,15.60
2023-02-16T13:40:56.574Z,15.50
2023-02-16T13:42:12.956Z,15.50
2023-02-16T13:43:27.855Z,15.50
2023-02-16T13:44:40.308Z,15.50
2023-02-16T13:45:45.502Z,15.40
2023-02-16T13:46:52.499Z,15.40
2023-02-16T13:47:55.099Z,15.50
2023-02-16T13:48:57.323Z,15.40
2023-02-16T13:50:05.593Z,15.40
2023-02-16T13:51:16.645Z,15.40
2023-02-16T13:52:41.167Z,15.40
2023-02-16T13:53:52.534Z,15.30
2023-02-16T13:54:54.419Z,15.30
2023-02-16T13:56:17.547Z,15.30
2023-02-16T13:57:52.095Z,15.30
2023-02-16T13:58:54.503Z,15.30
2023-02-16T14:00:01.154Z,15.30
2023-02-16T14:01:27.090Z,15.30
2023-02-16T14:02:54.352Z,15.20
2023-02-16T14:03:55.998Z,15.20
2023-02-16T14:04:57.415Z,15.20
2023-02-16T14:06:37.822Z,15.20
2023-02-16T14:07:39.742Z,15.20
2023-02-16T14:08:43.608Z,15.20
2023-02-16T14:09:47.707Z,15.30
2023-02-16T14:10:55.468Z,15.40
2023-02-16T14:11:57.472Z,15.30
2023-02-16T14:12:59.107Z,15.30
2023-02-16T14:14:00.620Z,15.20
2023-02-16T14:15:05.456Z,15.30
2023-02-16T14:16:29.066Z,15.20
2023-02-16T14:17:34.274Z,15.10
2023-02-16T14:18:53.544Z,15.10
2023-02-16T14:20:04.186Z,15.00
2023-02-16T14:21:16.259Z,14.90
2023-02-16T14:22:21.773Z,14.90
2023-02-16T14:23:34.482Z,14.90
2023-02-16T14:24:38.632Z,14.70
2023-02-16T14:25:40.809Z,14.70
2023-02-16T14:27:13.378Z,14.70
2023-02-16T14:28:30.057Z,14.60
2023-02-16T14:29:36.785Z,14.60
2023-02-16T14:30:54.535Z,14.60
2023-02-16T14:32:13.905Z,14.50
2023-02-16T14:33:18.281Z,14.60
2023-02-16T14:34:28.504Z,14.50
2023-02-16T14:35:35.500Z,14.50
2023-02-16T14:37:14.874Z,14.50
2023-02-16T14:38:26.863Z,14.50
2023-02-16T14:39:30.043Z,14.50
2023-02-16T14:40:43.237Z,14.50
2023-02-16T14:41:44.748Z,14.40
2023-02-16T14:43:28.127Z,14.50
2023-02-16T14:44:57.757Z,14.50
2023-02-16T14:46:07.878Z,14.60
2023-02-16T14:47:38.631Z,14.60
2023-02-16T14:49:07.811Z,14.60
2023-02-16T14:50:42.696Z,14.60
2023-02-16T14:51:53.258Z,14.60
2023-02-16T14:53:03.040Z,14.60
2023-02-16T14:54:30.388Z,14.60
2023-02-16T14:55:39.275Z,14.60
2023-02-16T14:57:02.016Z,14.50
2023-02-16T14:58:22.160Z,14.60
2023-02-16T14:59:35.647Z,14.60
2023-02-16T15:01:04.100Z,14.60
2023-02-16T15:02:25.655Z,14.50
2023-02-16T15:03:40.604Z,14.50
2023-02-16T15:04:42.108Z,14.50